sensor_id;sensor_type;location;lat;lon;timestamp;P1;durP1;ratioP1;P2;durP2;ratioP2
15071;SDS011;7635;56.696;13.002;2023-04-22T00:01:59;4.00;;;2.47;;
15071;SDS011;7635;56.696;13.002;2023-04-22T00:04:27;3.45;;;2.67;;
15071;SDS011;7635;56.696;13.002;2023-04-22T00:06:54;3.65;;;2.63;;
15071;SDS011;7635;56.696;13.002;2023-04-22T00:09:21;3.17;;;2.55;;
15071;SDS011;7635;56.696;13.002;2023-04-22T00:11:48;3.13;;;2.28;;
15071;SDS011;7635;56.696;13.002;2023-04-22T00:14:16;2.65;;;2.45;;
15071;SDS011;7635;56.696;13.002;2023-04-22T00:16:43;2.60;;;2.40;;
15071;SDS011;7635;56.696;13.002;2023-04-22T00:19:09;3.47;;;2.38;;
15071;SDS011;7635;56.696;13.002;2023-04-22T00:21:37;2.80;;;2.35;;
15071;SDS011;7635;56.696;13.002;2023-04-22T00:24:04;3.17;;;2.80;;
15071;SDS011;7635;56.696;13.002;2023-04-22T00:26:31;5.60;;;2.58;;
15071;SDS011;7635;56.696;13.002;2023-04-22T00:28:58;4.22;;;2.38;;
15071;SDS011;7635;56.696;13.002;2023-04-22T00:31:24;4.78;;;2.70;;
15071;SDS011;7635;56.696;13.002;2023-04-22T00:33:51;3.38;;;2.40;;
15071;SDS011;7635;56.696;13.002;2023-04-22T00:36:18;2.88;;;2.20;;
15071;SDS011;7635;56.696;13.002;2023-04-22T00:38:47;3.00;;;2.72;;
15071;SDS011;7635;56.696;13.002;2023-04-22T00:41:15;2.75;;;2.33;;
15071;SDS011;7635;56.696;13.002;2023-04-22T00:43:42;3.13;;;2.47;;
15071;SDS011;7635;56.696;13.002;2023-04-22T00:46:08;2.88;;;2.60;;
15071;SDS011;7635;56.696;13.002;2023-04-22T00:48:36;2.58;;;2.30;;
15071;SDS011;7635;56.696;13.002;2023-04-22T00:51:03;3.78;;;2.58;;
15071;SDS011;7635;56.696;13.002;2023-04-22T00:53:30;2.53;;;2.30;;
15071;SDS011;7635;56.696;13.002;2023-04-22T00:55:58;2.92;;;2.45;;
15071;SDS011;7635;56.696;13.002;2023-04-22T00:58:26;4.00;;;2.60;;
15071;SDS011;7635;56.696;13.002;2023-04-22T01:00:54;2.50;;;2.30;;
15071;SDS011;7635;56.696;13.002;2023-04-22T01:03:23;5.03;;;2.35;;
15071;SDS011;7635;56.696;13.002;2023-04-22T01:05:54;4.40;;;2.35;;
15071;SDS011;7635;56.696;13.002;2023-04-22T01:08:23;4.22;;;2.40;;
15071;SDS011;7635;56.696;13.002;2023-04-22T01:10:53;2.70;;;2.40;;
15071;SDS011;7635;56.696;13.002;2023-04-22T01:13:21;2.58;;;2.20;;
15071;SDS011;7635;56.696;13.002;2023-04-22T01:15:48;2.40;;;2.05;;
15071;SDS011;7635;56.696;13.002;2023-04-22T01:18:15;2.88;;;2.58;;
15071;SDS011;7635;56.696;13.002;2023-04-22T01:20:42;2.60;;;2.38;;
15071;SDS011;7635;56.696;13.002;2023-04-22T01:23:12;2.58;;;2.05;;
15071;SDS011;7635;56.696;13.002;2023-04-22T01:25:42;3.13;;;2.53;;
15071;SDS011;7635;56.696;13.002;2023-04-22T01:28:09;3.28;;;2.80;;
15071;SDS011;7635;56.696;13.002;2023-04-22T01:30:36;3.95;;;2.05;;
15071;SDS011;7635;56.696;13.002;2023-04-22T01:33:04;2.60;;;2.30;;
15071;SDS011;7635;56.696;13.002;2023-04-22T01:35:31;2.60;;;2.20;;
15071;SDS011;7635;56.696;13.002;2023-04-22T01:38:00;2.28;;;2.08;;
15071;SDS011;7635;56.696;13.002;2023-04-22T01:40:30;3.38;;;2.30;;
15071;SDS011;7635;56.696;13.002;2023-04-22T01:42:57;5.20;;;2.20;;
15071;SDS011;7635;56.696;13.002;2023-04-22T01:45:24;4.45;;;2.40;;
15071;SDS011;7635;56.696;13.002;2023-04-22T01:47:51;2.40;;;2.20;;
15071;SDS011;7635;56.696;13.002;2023-04-22T01:50:18;2.35;;;2.10;;
15071;SDS011;7635;56.696;13.002;2023-04-22T01:52:45;2.92;;;2.38;;
15071;SDS011;7635;56.696;13.002;2023-04-22T01:55:12;3.08;;;2.60;;
15071;SDS011;7635;56.696;13.002;2023-04-22T01:57:41;2.40;;;2.20;;
15071;SDS011;7635;56.696;13.002;2023-04-22T02:00:08;3.03;;;2.30;;
15071;SDS011;7635;56.696;13.002;2023-04-22T02:02:35;2.35;;;2.15;;
15071;SDS011;7635;56.696;13.002;2023-04-22T02:05:03;2.88;;;2.15;;
15071;SDS011;7635;56.696;13.002;2023-04-22T02:07:31;5.20;;;2.60;;
15071;SDS011;7635;56.696;13.002;2023-04-22T02:09:58;2.60;;;2.40;;
15071;SDS011;7635;56.696;13.002;2023-04-22T02:12:26;3.00;;;2.55;;
15071;SDS011;7635;56.696;13.002;2023-04-22T02:14:54;2.30;;;2.03;;
15071;SDS011;7635;56.696;13.002;2023-04-22T02:17:21;2.50;;;2.03;;
15071;SDS011;7635;56.696;13.002;2023-04-22T02:19:47;3.55;;;2.28;;
15071;SDS011;7635;56.696;13.002;2023-04-22T02:22:15;2.55;;;2.35;;
15071;SDS011;7635;56.696;13.002;2023-04-22T02:24:43;2.58;;;2.20;;
15071;SDS011;7635;56.696;13.002;2023-04-22T02:27:09;4.18;;;2.38;;
15071;SDS011;7635;56.696;13.002;2023-04-22T02:29:36;2.30;;;2.03;;
15071;SDS011;7635;56.696;13.002;2023-04-22T02:32:04;3.25;;;2.70;;
15071;SDS011;7635;56.696;13.002;2023-04-22T02:34:31;3.47;;;2.30;;
15071;SDS011;7635;56.696;13.002;2023-04-22T02:36:58;2.45;;;2.15;;
15071;SDS011;7635;56.696;13.002;2023-04-22T02:39:25;2.80;;;2.20;;
15071;SDS011;7635;56.696;13.002;2023-04-22T02:41:51;2.95;;;2.30;;
15071;SDS011;7635;56.696;13.002;2023-04-22T02:44:18;2.95;;;2.47;;
15071;SDS011;7635;56.696;13.002;2023-04-22T02:46:45;3.53;;;2.20;;
15071;SDS011;7635;56.696;13.002;2023-04-22T02:49:13;3.65;;;2.58;;
15071;SDS011;7635;56.696;13.002;2023-04-22T02:51:40;2.20;;;1.95;;
15071;SDS011;7635;56.696;13.002;2023-04-22T02:54:06;2.20;;;2.00;;
15071;SDS011;7635;56.696;13.002;2023-04-22T02:56:33;2.00;;;1.90;;
15071;SDS011;7635;56.696;13.002;2023-04-22T02:59:00;3.00;;;1.95;;
15071;SDS011;7635;56.696;13.002;2023-04-22T03:01:27;2.30;;;2.00;;
15071;SDS011;7635;56.696;13.002;2023-04-22T03:03:54;2.78;;;2.45;;
15071;SDS011;7635;56.696;13.002;2023-04-22T03:06:23;2.22;;;1.98;;
15071;SDS011;7635;56.696;13.002;2023-04-22T03:08:50;2.30;;;2.05;;
15071;SDS011;7635;56.696;13.002;2023-04-22T03:11:16;2.42;;;2.22;;
15071;SDS011;7635;56.696;13.002;2023-04-22T03:13:43;6.63;;;2.20;;
15071;SDS011;7635;56.696;13.002;2023-04-22T03:16:10;2.92;;;2.50;;
15071;SDS011;7635;56.696;13.002;2023-04-22T03:18:37;2.67;;;1.85;;
15071;SDS011;7635;56.696;13.002;2023-04-22T03:21:04;2.35;;;2.15;;
15071;SDS011;7635;56.696;13.002;2023-04-22T03:23:33;2.35;;;2.15;;
15071;SDS011;7635;56.696;13.002;2023-04-22T03:26:00;2.42;;;2.08;;
15071;SDS011;7635;56.696;13.002;2023-04-22T03:28:29;1.90;;;1.77;;
15071;SDS011;7635;56.696;13.002;2023-04-22T03:30:57;3.30;;;1.98;;
15071;SDS011;7635;56.696;13.002;2023-04-22T03:33:27;2.17;;;1.98;;
15071;SDS011;7635;56.696;13.002;2023-04-22T03:35:53;2.60;;;1.90;;
15071;SDS011;7635;56.696;13.002;2023-04-22T03:38:20;2.00;;;1.73;;
15071;SDS011;7635;56.696;13.002;2023-04-22T03:40:48;2.22;;;2.00;;
15071;SDS011;7635;56.696;13.002;2023-04-22T03:43:15;2.55;;;2.08;;
15071;SDS011;7635;56.696;13.002;2023-04-22T03:45:42;2.67;;;1.98;;
15071;SDS011;7635;56.696;13.002;2023-04-22T03:48:09;2.70;;;2.20;;
15071;SDS011;7635;56.696;13.002;2023-04-22T03:50:36;2.85;;;2.08;;
15071;SDS011;7635;56.696;13.002;2023-04-22T03:53:03;3.42;;;1.95;;
15071;SDS011;7635;56.696;13.002;2023-04-22T03:55:29;1.98;;;1.77;;
15071;SDS011;7635;56.696;13.002;2023-04-22T03:57:58;2.58;;;2.03;;
15071;SDS011;7635;56.696;13.002;2023-04-22T04:00:24;2.83;;;2.20;;
15071;SDS011;7635;56.696;13.002;2023-04-22T04:02:51;2.17;;;1.98;;
15071;SDS011;7635;56.696;13.002;2023-04-22T04:05:18;1.98;;;1.83;;
15071;SDS011;7635;56.696;13.002;2023-04-22T04:07:45;1.80;;;1.70;;
15071;SDS011;7635;56.696;13.002;2023-04-22T04:10:12;2.10;;;1.90;;
15071;SDS011;7635;56.696;13.002;2023-04-22T04:12:42;2.50;;;1.92;;
15071;SDS011;7635;56.696;13.002;2023-04-22T04:15:10;2.10;;;1.77;;
15071;SDS011;7635;56.696;13.002;2023-04-22T04:17:37;2.00;;;1.75;;
15071;SDS011;7635;56.696;13.002;2023-04-22T04:20:04;3.45;;;1.83;;
15071;SDS011;7635;56.696;13.002;2023-04-22T04:22:32;1.77;;;1.67;;
15071;SDS011;7635;56.696;13.002;2023-04-22T04:24:59;2.50;;;2.20;;
15071;SDS011;7635;56.696;13.002;2023-04-22T04:27:26;1.92;;;1.73;;
15071;SDS011;7635;56.696;13.002;2023-04-22T04:29:53;2.33;;;2.05;;
15071;SDS011;7635;56.696;13.002;2023-04-22T04:32:21;1.88;;;1.77;;
15071;SDS011;7635;56.696;13.002;2023-04-22T04:34:49;2.30;;;2.00;;
15071;SDS011;7635;56.696;13.002;2023-04-22T04:37:16;1.98;;;1.77;;
15071;SDS011;7635;56.696;13.002;2023-04-22T04:39:43;2.10;;;1.65;;
15071;SDS011;7635;56.696;13.002;2023-04-22T04:42:10;1.70;;;1.60;;
15071;SDS011;7635;56.696;13.002;2023-04-22T04:44:38;2.58;;;1.77;;
15071;SDS011;7635;56.696;13.002;2023-04-22T04:47:05;1.90;;;1.80;;
15071;SDS011;7635;56.696;13.002;2023-04-22T04:49:33;1.73;;;1.60;;
15071;SDS011;7635;56.696;13.002;2023-04-22T04:52:04;2.03;;;1.65;;
15071;SDS011;7635;56.696;13.002;2023-04-22T04:54:31;1.80;;;1.70;;
15071;SDS011;7635;56.696;13.002;2023-04-22T04:56:58;1.83;;;1.67;;
15071;SDS011;7635;56.696;13.002;2023-04-22T04:59:25;2.30;;;2.10;;
15071;SDS011;7635;56.696;13.002;2023-04-22T05:01:52;1.60;;;1.50;;
15071;SDS011;7635;56.696;13.002;2023-04-22T05:04:20;3.03;;;1.70;;
15071;SDS011;7635;56.696;13.002;2023-04-22T05:06:48;1.73;;;1.63;;
15071;SDS011;7635;56.696;13.002;2023-04-22T05:09:15;1.58;;;1.48;;
15071;SDS011;7635;56.696;13.002;2023-04-22T05:11:42;1.67;;;1.58;;
15071;SDS011;7635;56.696;13.002;2023-04-22T05:14:09;1.58;;;1.48;;
15071;SDS011;7635;56.696;13.002;2023-04-22T05:16:36;1.70;;;1.55;;
15071;SDS011;7635;56.696;13.002;2023-04-22T05:19:03;1.92;;;1.73;;
15071;SDS011;7635;56.696;13.002;2023-04-22T05:22:05;2.75;;;1.70;;
15071;SDS011;7635;56.696;13.002;2023-04-22T05:24:32;2.33;;;1.70;;
15071;SDS011;7635;56.696;13.002;2023-04-22T05:26:59;1.80;;;1.70;;
15071;SDS011;7635;56.696;13.002;2023-04-22T05:29:27;1.73;;;1.63;;
15071;SDS011;7635;56.696;13.002;2023-04-22T05:31:55;1.70;;;1.60;;
15071;SDS011;7635;56.696;13.002;2023-04-22T05:34:22;1.80;;;1.70;;
15071;SDS011;7635;56.696;13.002;2023-04-22T05:36:49;1.95;;;1.70;;
15071;SDS011;7635;56.696;13.002;2023-04-22T05:39:18;1.85;;;1.65;;
15071;SDS011;7635;56.696;13.002;2023-04-22T05:41:45;1.77;;;1.67;;
15071;SDS011;7635;56.696;13.002;2023-04-22T05:44:12;2.35;;;1.58;;
15071;SDS011;7635;56.696;13.002;2023-04-22T05:46:38;1.75;;;1.63;;
15071;SDS011;7635;56.696;13.002;2023-04-22T05:49:05;2.30;;;1.58;;
15071;SDS011;7635;56.696;13.002;2023-04-22T05:51:32;1.70;;;1.60;;
15071;SDS011;7635;56.696;13.002;2023-04-22T05:53:59;1.90;;;1.70;;
15071;SDS011;7635;56.696;13.002;2023-04-22T05:56:27;1.65;;;1.55;;
15071;SDS011;7635;56.696;13.002;2023-04-22T05:58:53;1.98;;;1.77;;
15071;SDS011;7635;56.696;13.002;2023-04-22T06:01:20;1.85;;;1.75;;
15071;SDS011;7635;56.696;13.002;2023-04-22T06:03:48;1.73;;;1.60;;
15071;SDS011;7635;56.696;13.002;2023-04-22T06:06:16;2.42;;;1.92;;
15071;SDS011;7635;56.696;13.002;2023-04-22T06:08:43;1.70;;;1.60;;
15071;SDS011;7635;56.696;13.002;2023-04-22T06:11:10;1.70;;;1.60;;
15071;SDS011;7635;56.696;13.002;2023-04-22T06:13:38;2.10;;;1.90;;
15071;SDS011;7635;56.696;13.002;2023-04-22T06:16:05;2.00;;;1.80;;
15071;SDS011;7635;56.696;13.002;2023-04-22T06:18:32;2.30;;;2.08;;
15071;SDS011;7635;56.696;13.002;2023-04-22T06:21:00;4.63;;;1.58;;
15071;SDS011;7635;56.696;13.002;2023-04-22T06:23:27;2.45;;;1.50;;
15071;SDS011;7635;56.696;13.002;2023-04-22T06:25:54;2.63;;;1.73;;
15071;SDS011;7635;56.696;13.002;2023-04-22T06:28:22;2.38;;;1.90;;
15071;SDS011;7635;56.696;13.002;2023-04-22T06:30:53;2.30;;;1.75;;
15071;SDS011;7635;56.696;13.002;2023-04-22T06:33:20;2.28;;;2.00;;
15071;SDS011;7635;56.696;13.002;2023-04-22T06:35:47;1.70;;;1.60;;
15071;SDS011;7635;56.696;13.002;2023-04-22T06:38:14;2.33;;;1.88;;
15071;SDS011;7635;56.696;13.002;2023-04-22T06:40:41;2.50;;;1.95;;
15071;SDS011;7635;56.696;13.002;2023-04-22T06:43:31;2.30;;;2.10;;
15071;SDS011;7635;56.696;13.002;2023-04-22T06:46:00;2.30;;;1.83;;
15071;SDS011;7635;56.696;13.002;2023-04-22T06:48:30;3.92;;;1.83;;
15071;SDS011;7635;56.696;13.002;2023-04-22T06:51:08;3.75;;;1.90;;
15071;SDS011;7635;56.696;13.002;2023-04-22T07:01:01;1.80;;;1.70;;
15071;SDS011;7635;56.696;13.002;2023-04-22T07:03:51;1.77;;;1.67;;
15071;SDS011;7635;56.696;13.002;2023-04-22T07:06:21;2.72;;;1.80;;
15071;SDS011;7635;56.696;13.002;2023-04-22T07:08:59;2.20;;;2.00;;
15071;SDS011;7635;56.696;13.002;2023-04-22T07:11:29;2.10;;;1.65;;
15071;SDS011;7635;56.696;13.002;2023-04-22T07:14:00;2.70;;;1.90;;
15071;SDS011;7635;56.696;13.002;2023-04-22T07:16:51;1.70;;;1.60;;
15071;SDS011;7635;56.696;13.002;2023-04-22T07:19:22;2.38;;;1.58;;
15071;SDS011;7635;56.696;13.002;2023-04-22T07:21:52;2.05;;;1.75;;
15071;SDS011;7635;56.696;13.002;2023-04-22T07:25:52;1.63;;;1.52;;
15071;SDS011;7635;56.696;13.002;2023-04-22T07:28:04;2.00;;;1.80;;
15071;SDS011;7635;56.696;13.002;2023-04-22T07:30:44;1.90;;;1.80;;
15071;SDS011;7635;56.696;13.002;2023-04-22T07:33:50;3.67;;;2.10;;
15071;SDS011;7635;56.696;13.002;2023-04-22T07:36:35;2.03;;;1.83;;
15071;SDS011;7635;56.696;13.002;2023-04-22T07:39:05;4.80;;;2.23;;
15071;SDS011;7635;56.696;13.002;2023-04-22T07:41:35;2.83;;;2.05;;
15071;SDS011;7635;56.696;13.002;2023-04-22T07:44:05;2.70;;;2.30;;
15071;SDS011;7635;56.696;13.002;2023-04-22T07:57:18;2.17;;;1.92;;
15071;SDS011;7635;56.696;13.002;2023-04-22T07:59:53;3.08;;;1.90;;
15071;SDS011;7635;56.696;13.002;2023-04-22T08:05:25;6.90;;;2.47;;
15071;SDS011;7635;56.696;13.002;2023-04-22T08:08:01;2.60;;;2.40;;
15071;SDS011;7635;56.696;13.002;2023-04-22T08:10:36;4.10;;;2.25;;
15071;SDS011;7635;56.696;13.002;2023-04-22T08:13:14;2.58;;;2.05;;
15071;SDS011;7635;56.696;13.002;2023-04-22T08:19:01;2.72;;;2.08;;
15071;SDS011;7635;56.696;13.002;2023-04-22T08:21:54;2.30;;;2.10;;
15071;SDS011;7635;56.696;13.002;2023-04-22T08:24:47;4.07;;;2.13;;
15071;SDS011;7635;56.696;13.002;2023-04-22T08:27:38;2.13;;;1.92;;
15071;SDS011;7635;56.696;13.002;2023-04-22T08:30:28;6.47;;;2.10;;
15071;SDS011;7635;56.696;13.002;2023-04-22T08:33:08;3.05;;;2.00;;
15071;SDS011;7635;56.696;13.002;2023-04-22T08:35:48;2.35;;;1.55;;
15071;SDS011;7635;56.696;13.002;2023-04-22T08:38:16;2.85;;;2.65;;
15071;SDS011;7635;56.696;13.002;2023-04-22T08:40:45;3.25;;;2.83;;
15071;SDS011;7635;56.696;13.002;2023-04-22T08:43:42;6.75;;;2.42;;
15071;SDS011;7635;56.696;13.002;2023-04-22T08:46:15;3.15;;;2.70;;
15071;SDS011;7635;56.696;13.002;2023-04-22T08:48:51;3.33;;;2.78;;
15071;SDS011;7635;56.696;13.002;2023-04-22T08:51:36;3.00;;;2.15;;
15071;SDS011;7635;56.696;13.002;2023-04-22T08:54:25;3.45;;;2.50;;
15071;SDS011;7635;56.696;13.002;2023-04-22T08:58:04;2.20;;;2.00;;
15071;SDS011;7635;56.696;13.002;2023-04-22T09:00:17;4.40;;;2.50;;
15071;SDS011;7635;56.696;13.002;2023-04-22T09:03:06;2.80;;;2.50;;
15071;SDS011;7635;56.696;13.002;2023-04-22T09:05:46;2.20;;;2.00;;
15071;SDS011;7635;56.696;13.002;2023-04-22T09:08:19;2.25;;;2.03;;
15071;SDS011;7635;56.696;13.002;2023-04-22T09:10:53;2.33;;;2.10;;
15071;SDS011;7635;56.696;13.002;2023-04-22T09:13:28;3.08;;;2.33;;
15071;SDS011;7635;56.696;13.002;2023-04-22T09:15:56;4.82;;;2.65;;
15071;SDS011;7635;56.696;13.002;2023-04-22T09:18:48;1.77;;;1.67;;
15071;SDS011;7635;56.696;13.002;2023-04-22T09:21:32;2.08;;;1.88;;
15071;SDS011;7635;56.696;13.002;2023-04-22T09:24:12;2.47;;;2.28;;
15071;SDS011;7635;56.696;13.002;2023-04-22T09:27:23;2.60;;;2.30;;
15071;SDS011;7635;56.696;13.002;2023-04-22T09:54:09;2.15;;;1.52;;
15071;SDS011;7635;56.696;13.002;2023-04-22T10:00:20;3.90;;;1.83;;
15071;SDS011;7635;56.696;13.002;2023-04-22T10:03:08;2.10;;;1.65;;
15071;SDS011;7635;56.696;13.002;2023-04-22T10:05:36;1.70;;;1.60;;
15071;SDS011;7635;56.696;13.002;2023-04-22T10:08:22;3.07;;;1.97;;
15071;SDS011;7635;56.696;13.002;2023-04-22T10:10:56;1.48;;;1.38;;
15071;SDS011;7635;56.696;13.002;2023-04-22T10:14:01;2.25;;;2.05;;
15071;SDS011;7635;56.696;13.002;2023-04-22T10:16:37;2.20;;;2.00;;
15071;SDS011;7635;56.696;13.002;2023-04-22T10:19:10;1.77;;;1.67;;
15071;SDS011;7635;56.696;13.002;2023-04-22T10:21:52;1.70;;;1.60;;
15071;SDS011;7635;56.696;13.002;2023-04-22T10:24:24;2.65;;;2.03;;
15071;SDS011;7635;56.696;13.002;2023-04-22T10:26:56;2.22;;;1.75;;
15071;SDS011;7635;56.696;13.002;2023-04-22T10:29:38;2.40;;;2.05;;
15071;SDS011;7635;56.696;13.002;2023-04-22T10:32:37;2.83;;;2.22;;
15071;SDS011;7635;56.696;13.002;2023-04-22T10:35:12;3.42;;;2.20;;
15071;SDS011;7635;56.696;13.002;2023-04-22T10:37:56;2.63;;;2.08;;
15071;SDS011;7635;56.696;13.002;2023-04-22T10:41:00;3.25;;;2.00;;
15071;SDS011;7635;56.696;13.002;2023-04-22T10:43:54;2.17;;;1.98;;
15071;SDS011;7635;56.696;13.002;2023-04-22T10:49:25;3.53;;;2.08;;
15071;SDS011;7635;56.696;13.002;2023-04-22T10:59:15;5.03;;;2.13;;
15071;SDS011;7635;56.696;13.002;2023-04-22T11:02:03;4.40;;;2.28;;
15071;SDS011;7635;56.696;13.002;2023-04-22T11:11:26;2.55;;;1.85;;
15071;SDS011;7635;56.696;13.002;2023-04-22T11:14:05;3.40;;;2.00;;
15071;SDS011;7635;56.696;13.002;2023-04-22T11:20:21;2.45;;;2.25;;
15071;SDS011;7635;56.696;13.002;2023-04-22T11:23:19;2.38;;;1.70;;
15071;SDS011;7635;56.696;13.002;2023-04-22T11:26:03;2.42;;;2.13;;
15071;SDS011;7635;56.696;13.002;2023-04-22T11:29:14;2.25;;;2.00;;
15071;SDS011;7635;56.696;13.002;2023-04-22T11:32:24;2.90;;;1.95;;
15071;SDS011;7635;56.696;13.002;2023-04-22T11:35:04;3.58;;;2.08;;
15071;SDS011;7635;56.696;13.002;2023-04-22T11:44:36;3.97;;;2.70;;
15071;SDS011;7635;56.696;13.002;2023-04-22T11:47:31;3.45;;;2.67;;
15071;SDS011;7635;56.696;13.002;2023-04-22T11:50:03;2.53;;;2.33;;
15071;SDS011;7635;56.696;13.002;2023-04-22T11:52:41;2.72;;;2.47;;
15071;SDS011;7635;56.696;13.002;2023-04-22T11:55:09;3.03;;;2.72;;
15071;SDS011;7635;56.696;13.002;2023-04-22T11:57:37;4.05;;;2.55;;
15071;SDS011;7635;56.696;13.002;2023-04-22T12:03:25;2.88;;;2.50;;
15071;SDS011;7635;56.696;13.002;2023-04-22T12:06:18;3.30;;;2.80;;
15071;SDS011;7635;56.696;13.002;2023-04-22T12:08:45;2.88;;;2.60;;
15071;SDS011;7635;56.696;13.002;2023-04-22T12:17:50;4.35;;;2.80;;
15071;SDS011;7635;56.696;13.002;2023-04-22T12:20:21;3.40;;;2.67;;
15071;SDS011;7635;56.696;13.002;2023-04-22T12:22:48;3.90;;;2.50;;
15071;SDS011;7635;56.696;13.002;2023-04-22T12:25:26;3.65;;;2.67;;
15071;SDS011;7635;56.696;13.002;2023-04-22T12:27:56;5.30;;;2.70;;
15071;SDS011;7635;56.696;13.002;2023-04-22T12:30:29;3.67;;;2.35;;
15071;SDS011;7635;56.696;13.002;2023-04-22T12:33:21;5.45;;;2.60;;
15071;SDS011;7635;56.696;13.002;2023-04-22T12:35:55;4.55;;;2.63;;
15071;SDS011;7635;56.696;13.002;2023-04-22T12:38:52;2.85;;;2.40;;
15071;SDS011;7635;56.696;13.002;2023-04-22T12:41:26;3.13;;;1.85;;
15071;SDS011;7635;56.696;13.002;2023-04-22T12:44:15;3.92;;;2.40;;
15071;SDS011;7635;56.696;13.002;2023-04-22T12:47:13;3.53;;;2.72;;
15071;SDS011;7635;56.696;13.002;2023-04-22T12:49:55;2.80;;;2.47;;
15071;SDS011;7635;56.696;13.002;2023-04-22T12:55:54;3.83;;;2.42;;
15071;SDS011;7635;56.696;13.002;2023-04-22T12:58:45;7.05;;;2.45;;
15071;SDS011;7635;56.696;13.002;2023-04-22T13:01:19;2.47;;;2.28;;
15071;SDS011;7635;56.696;13.002;2023-04-22T13:07:10;8.65;;;2.60;;
15071;SDS011;7635;56.696;13.002;2023-04-22T13:10:47;2.50;;;2.17;;
15071;SDS011;7635;56.696;13.002;2023-04-22T13:14:16;2.70;;;1.90;;
15071;SDS011;7635;56.696;13.002;2023-04-22T13:16:56;7.75;;;3.05;;
15071;SDS011;7635;56.696;13.002;2023-04-22T13:29:43;2.20;;;1.92;;
15071;SDS011;7635;56.696;13.002;2023-04-22T13:33:05;2.85;;;1.90;;
15071;SDS011;7635;56.696;13.002;2023-04-22T13:36:03;3.35;;;2.67;;
15071;SDS011;7635;56.696;13.002;2023-04-22T13:39:46;3.25;;;2.58;;
15071;SDS011;7635;56.696;13.002;2023-04-22T13:41:52;3.22;;;2.28;;
15071;SDS011;7635;56.696;13.002;2023-04-22T13:48:11;3.92;;;2.55;;
15071;SDS011;7635;56.696;13.002;2023-04-22T13:50:47;4.07;;;2.13;;
15071;SDS011;7635;56.696;13.002;2023-04-22T13:53:46;3.67;;;2.50;;
15071;SDS011;7635;56.696;13.002;2023-04-22T13:59:43;2.75;;;2.50;;
15071;SDS011;7635;56.696;13.002;2023-04-22T14:02:22;4.43;;;3.10;;
15071;SDS011;7635;56.696;13.002;2023-04-22T14:05:14;3.35;;;3.03;;
15071;SDS011;7635;56.696;13.002;2023-04-22T14:08:04;3.35;;;2.63;;
15071;SDS011;7635;56.696;13.002;2023-04-22T14:10:47;4.57;;;2.35;;
15071;SDS011;7635;56.696;13.002;2023-04-22T14:56:06;2.42;;;1.58;;
15071;SDS011;7635;56.696;13.002;2023-04-22T14:59:00;0.98;;;0.98;;
15071;SDS011;7635;56.696;13.002;2023-04-22T15:08:21;1.85;;;1.40;;
15071;SDS011;7635;56.696;13.002;2023-04-22T15:14:52;1.30;;;1.20;;
15071;SDS011;7635;56.696;13.002;2023-04-22T15:20:43;1.05;;;1.05;;
15071;SDS011;7635;56.696;13.002;2023-04-22T15:23:13;1.50;;;1.40;;
15071;SDS011;7635;56.696;13.002;2023-04-22T15:25:49;1.52;;;1.40;;
15071;SDS011;7635;56.696;13.002;2023-04-22T15:31:47;1.90;;;1.42;;
15071;SDS011;7635;56.696;13.002;2023-04-22T15:34:18;1.20;;;1.20;;
15071;SDS011;7635;56.696;13.002;2023-04-22T15:36:46;1.20;;;1.10;;
15071;SDS011;7635;56.696;13.002;2023-04-22T15:40:00;4.28;;;1.40;;
15071;SDS011;7635;56.696;13.002;2023-04-22T15:42:34;1.30;;;1.20;;
15071;SDS011;7635;56.696;13.002;2023-04-22T15:45:44;1.40;;;1.30;;
15071;SDS011;7635;56.696;13.002;2023-04-22T15:48:21;2.42;;;1.50;;
15071;SDS011;7635;56.696;13.002;2023-04-22T15:54:33;1.85;;;1.60;;
15071;SDS011;7635;56.696;13.002;2023-04-22T15:57:06;1.65;;;1.52;;
15071;SDS011;7635;56.696;13.002;2023-04-22T15:59:40;1.83;;;1.50;;
15071;SDS011;7635;56.696;13.002;2023-04-22T16:02:13;1.42;;;1.33;;
15071;SDS011;7635;56.696;13.002;2023-04-22T16:08:06;2.92;;;1.50;;
15071;SDS011;7635;56.696;13.002;2023-04-22T16:14:02;2.60;;;1.45;;
15071;SDS011;7635;56.696;13.002;2023-04-22T16:16:30;1.73;;;1.58;;
15071;SDS011;7635;56.696;13.002;2023-04-22T16:19:00;1.77;;;1.35;;
15071;SDS011;7635;56.696;13.002;2023-04-22T16:21:28;1.48;;;1.30;;
15071;SDS011;7635;56.696;13.002;2023-04-22T16:23:57;1.55;;;1.33;;
15071;SDS011;7635;56.696;13.002;2023-04-22T16:26:34;1.45;;;1.23;;
15071;SDS011;7635;56.696;13.002;2023-04-22T16:29:12;1.88;;;1.60;;
15071;SDS011;7635;56.696;13.002;2023-04-22T16:31:45;2.40;;;2.17;;
15071;SDS011;7635;56.696;13.002;2023-04-22T16:34:13;2.53;;;1.50;;
15071;SDS011;7635;56.696;13.002;2023-04-22T16:36:40;6.53;;;1.90;;
15071;SDS011;7635;56.696;13.002;2023-04-22T16:39:10;1.63;;;1.52;;
15071;SDS011;7635;56.696;13.002;2023-04-22T16:41:56;1.50;;;1.40;;
15071;SDS011;7635;56.696;13.002;2023-04-22T16:47:46;2.72;;;1.50;;
15071;SDS011;7635;56.696;13.002;2023-04-22T16:50:21;3.35;;;1.10;;
15071;SDS011;7635;56.696;13.002;2023-04-22T16:52:55;1.45;;;1.20;;
15071;SDS011;7635;56.696;13.002;2023-04-22T16:55:33;3.65;;;1.70;;
15071;SDS011;7635;56.696;13.002;2023-04-22T16:58:07;1.40;;;1.30;;
15071;SDS011;7635;56.696;13.002;2023-04-22T17:00:36;1.27;;;1.17;;
15071;SDS011;7635;56.696;13.002;2023-04-22T17:06:44;1.90;;;1.35;;
15071;SDS011;7635;56.696;13.002;2023-04-22T17:09:28;1.48;;;1.38;;
15071;SDS011;7635;56.696;13.002;2023-04-22T17:11:58;1.60;;;1.50;;
15071;SDS011;7635;56.696;13.002;2023-04-22T17:14:25;1.30;;;1.20;;
15071;SDS011;7635;56.696;13.002;2023-04-22T17:16:53;3.17;;;1.73;;
15071;SDS011;7635;56.696;13.002;2023-04-22T17:19:23;3.00;;;1.50;;
15071;SDS011;7635;56.696;13.002;2023-04-22T17:22:00;1.40;;;1.30;;
15071;SDS011;7635;56.696;13.002;2023-04-22T17:24:28;1.92;;;1.63;;
15071;SDS011;7635;56.696;13.002;2023-04-22T17:26:55;1.42;;;1.30;;
15071;SDS011;7635;56.696;13.002;2023-04-22T17:29:24;1.55;;;1.45;;
15071;SDS011;7635;56.696;13.002;2023-04-22T17:31:54;1.58;;;1.48;;
15071;SDS011;7635;56.696;13.002;2023-04-22T17:34:21;1.70;;;1.60;;
15071;SDS011;7635;56.696;13.002;2023-04-22T17:36:51;1.92;;;1.70;;
15071;SDS011;7635;56.696;13.002;2023-04-22T17:39:19;2.28;;;2.05;;
15071;SDS011;7635;56.696;13.002;2023-04-22T17:41:50;2.58;;;1.80;;
15071;SDS011;7635;56.696;13.002;2023-04-22T17:44:24;3.65;;;1.77;;
15071;SDS011;7635;56.696;13.002;2023-04-22T17:46:51;1.77;;;1.48;;
15071;SDS011;7635;56.696;13.002;2023-04-22T17:53:16;3.42;;;1.80;;
15071;SDS011;7635;56.696;13.002;2023-04-22T17:59:16;1.75;;;1.48;;
15071;SDS011;7635;56.696;13.002;2023-04-22T18:02:15;1.58;;;1.48;;
15071;SDS011;7635;56.696;13.002;2023-04-22T18:04:56;2.72;;;1.35;;
15071;SDS011;7635;56.696;13.002;2023-04-22T18:31:35;1.60;;;1.50;;
15071;SDS011;7635;56.696;13.002;2023-04-22T18:37:38;2.95;;;1.50;;
15071;SDS011;7635;56.696;13.002;2023-04-22T18:53:47;1.50;;;1.27;;
15071;SDS011;7635;56.696;13.002;2023-04-22T18:57:02;1.80;;;1.70;;
15071;SDS011;7635;56.696;13.002;2023-04-22T18:59:54;1.70;;;1.55;;
15071;SDS011;7635;56.696;13.002;2023-04-22T19:03:00;2.55;;;2.20;;
15071;SDS011;7635;56.696;13.002;2023-04-22T19:05:36;2.85;;;1.60;;
15071;SDS011;7635;56.696;13.002;2023-04-22T19:12:07;1.90;;;1.25;;
15071;SDS011;7635;56.696;13.002;2023-04-22T19:25:31;1.17;;;1.17;;
15071;SDS011;7635;56.696;13.002;2023-04-22T19:28:03;1.75;;;1.42;;
15071;SDS011;7635;56.696;13.002;2023-04-22T19:30:42;1.50;;;1.40;;
15071;SDS011;7635;56.696;13.002;2023-04-22T19:33:16;1.20;;;1.20;;
15071;SDS011;7635;56.696;13.002;2023-04-22T19:35:44;1.45;;;1.35;;
15071;SDS011;7635;56.696;13.002;2023-04-22T19:38:14;1.70;;;1.60;;
15071;SDS011;7635;56.696;13.002;2023-04-22T19:40:43;1.38;;;1.15;;
15071;SDS011;7635;56.696;13.002;2023-04-22T19:46:27;1.40;;;1.30;;
15071;SDS011;7635;56.696;13.002;2023-04-22T19:48:55;2.45;;;1.50;;